sensor_id;sensor_type;location;lat;lon;timestamp;P1;durP1;ratioP1;P2;durP2;ratioP2
75456;SDS011;64036;48.266;14.192;2023-03-14T00:00:09;4.90;;;2.60;;
75456;SDS011;64036;48.266;14.192;2023-03-14T00:02:36;5.60;;;2.80;;
75456;SDS011;64036;48.266;14.192;2023-03-14T00:05:11;4.20;;;2.60;;
75456;SDS011;64036;48.266;14.192;2023-03-14T00:07:38;5.90;;;2.60;;
75456;SDS011;64036;48.266;14.192;2023-03-14T00:10:10;6.20;;;2.70;;
75456;SDS011;64036;48.266;14.192;2023-03-14T00:12:38;7.90;;;3.80;;
75456;SDS011;64036;48.266;14.192;2023-03-14T00:15:04;8.20;;;4.10;;
75456;SDS011;64036;48.266;14.192;2023-03-14T00:17:38;10.20;;;4.90;;
75456;SDS011;64036;48.266;14.192;2023-03-14T00:20:06;8.30;;;4.30;;
75456;SDS011;64036;48.266;14.192;2023-03-14T00:22:40;9.70;;;4.30;;
75456;SDS011;64036;48.266;14.192;2023-03-14T00:25:11;7.60;;;4.10;;
75456;SDS011;64036;48.266;14.192;2023-03-14T00:27:37;9.00;;;4.50;;
75456;SDS011;64036;48.266;14.192;2023-03-14T00:30:04;9.30;;;4.00;;
75456;SDS011;64036;48.266;14.192;2023-03-14T00:32:33;7.00;;;4.00;;
75456;SDS011;64036;48.266;14.192;2023-03-14T00:34:59;8.80;;;4.00;;
75456;SDS011;64036;48.266;14.192;2023-03-14T00:37:27;6.50;;;4.30;;
75456;SDS011;64036;48.266;14.192;2023-03-14T00:39:53;8.30;;;4.30;;
75456;SDS011;64036;48.266;14.192;2023-03-14T00:42:21;8.50;;;4.50;;
75456;SDS011;64036;48.266;14.192;2023-03-14T00:44:47;9.50;;;4.20;;
75456;SDS011;64036;48.266;14.192;2023-03-14T00:47:15;8.60;;;4.00;;
75456;SDS011;64036;48.266;14.192;2023-03-14T00:49:41;8.70;;;4.50;;
75456;SDS011;64036;48.266;14.192;2023-03-14T00:52:13;6.50;;;3.70;;
75456;SDS011;64036;48.266;14.192;2023-03-14T00:54:39;6.60;;;3.70;;
75456;SDS011;64036;48.266;14.192;2023-03-14T00:57:05;8.10;;;4.40;;
75456;SDS011;64036;48.266;14.192;2023-03-14T00:59:31;7.20;;;3.80;;
75456;SDS011;64036;48.266;14.192;2023-03-14T01:01:57;7.00;;;3.00;;
75456;SDS011;64036;48.266;14.192;2023-03-14T01:04:23;6.40;;;3.30;;
75456;SDS011;64036;48.266;14.192;2023-03-14T01:06:52;5.90;;;3.10;;
75456;SDS011;64036;48.266;14.192;2023-03-14T01:09:17;6.90;;;3.50;;
75456;SDS011;64036;48.266;14.192;2023-03-14T01:11:43;6.00;;;2.90;;
75456;SDS011;64036;48.266;14.192;2023-03-14T01:14:12;7.90;;;3.00;;
75456;SDS011;64036;48.266;14.192;2023-03-14T01:16:38;6.00;;;2.90;;
75456;SDS011;64036;48.266;14.192;2023-03-14T01:19:04;7.90;;;3.00;;
75456;SDS011;64036;48.266;14.192;2023-03-14T01:21:36;6.50;;;3.30;;
75456;SDS011;64036;48.266;14.192;2023-03-14T01:24:05;5.70;;;3.40;;
75456;SDS011;64036;48.266;14.192;2023-03-14T01:26:34;6.40;;;3.20;;
75456;SDS011;64036;48.266;14.192;2023-03-14T01:29:06;7.00;;;3.30;;
75456;SDS011;64036;48.266;14.192;2023-03-14T01:31:34;5.20;;;3.00;;
75456;SDS011;64036;48.266;14.192;2023-03-14T01:34:00;6.40;;;3.00;;
75456;SDS011;64036;48.266;14.192;2023-03-14T01:36:29;6.00;;;3.00;;
75456;SDS011;64036;48.266;14.192;2023-03-14T01:38:58;7.10;;;3.20;;
75456;SDS011;64036;48.266;14.192;2023-03-14T01:41:25;5.50;;;2.60;;
75456;SDS011;64036;48.266;14.192;2023-03-14T01:43:51;5.80;;;3.10;;
75456;SDS011;64036;48.266;14.192;2023-03-14T01:46:41;6.10;;;2.70;;
75456;SDS011;64036;48.266;14.192;2023-03-14T01:49:27;5.00;;;2.70;;
75456;SDS011;64036;48.266;14.192;2023-03-14T01:52:05;4.70;;;2.40;;
75456;SDS011;64036;48.266;14.192;2023-03-14T01:54:51;5.00;;;2.50;;
75456;SDS011;64036;48.266;14.192;2023-03-14T01:57:29;7.20;;;2.90;;
75456;SDS011;64036;48.266;14.192;2023-03-14T02:00:02;3.40;;;2.10;;
75456;SDS011;64036;48.266;14.192;2023-03-14T02:02:38;4.90;;;2.60;;
75456;SDS011;64036;48.266;14.192;2023-03-14T02:07:48;4.30;;;2.40;;
75456;SDS011;64036;48.266;14.192;2023-03-14T02:10:18;4.60;;;2.60;;
75456;SDS011;64036;48.266;14.192;2023-03-14T02:12:50;6.70;;;2.80;;
75456;SDS011;64036;48.266;14.192;2023-03-14T02:15:17;4.40;;;2.50;;
75456;SDS011;64036;48.266;14.192;2023-03-14T02:17:45;5.20;;;2.80;;
75456;SDS011;64036;48.266;14.192;2023-03-14T02:22:47;5.10;;;2.40;;
75456;SDS011;64036;48.266;14.192;2023-03-14T02:25:47;5.50;;;2.80;;
75456;SDS011;64036;48.266;14.192;2023-03-14T02:28:20;6.10;;;3.50;;
75456;SDS011;64036;48.266;14.192;2023-03-14T02:30:46;7.70;;;3.50;;
75456;SDS011;64036;48.266;14.192;2023-03-14T02:33:23;5.50;;;3.20;;
75456;SDS011;64036;48.266;14.192;2023-03-14T02:36:09;5.70;;;3.10;;
75456;SDS011;64036;48.266;14.192;2023-03-14T02:38:46;5.10;;;3.10;;
75456;SDS011;64036;48.266;14.192;2023-03-14T02:41:14;5.30;;;2.90;;
75456;SDS011;64036;48.266;14.192;2023-03-14T02:43:40;5.20;;;3.10;;
75456;SDS011;64036;48.266;14.192;2023-03-14T02:46:09;7.60;;;3.70;;
75456;SDS011;64036;48.266;14.192;2023-03-14T02:49:05;6.80;;;3.20;;
75456;SDS011;64036;48.266;14.192;2023-03-14T02:51:38;7.60;;;3.50;;
75456;SDS011;64036;48.266;14.192;2023-03-14T02:54:06;6.30;;;3.20;;
75456;SDS011;64036;48.266;14.192;2023-03-14T02:56:32;4.90;;;2.80;;
75456;SDS011;64036;48.266;14.192;2023-03-14T02:58:58;6.30;;;3.30;;
75456;SDS011;64036;48.266;14.192;2023-03-14T03:01:24;5.20;;;3.20;;
75456;SDS011;64036;48.266;14.192;2023-03-14T03:03:56;5.10;;;3.00;;
75456;SDS011;64036;48.266;14.192;2023-03-14T03:06:21;5.60;;;3.00;;
75456;SDS011;64036;48.266;14.192;2023-03-14T03:08:50;6.00;;;3.10;;
75456;SDS011;64036;48.266;14.192;2023-03-14T03:11:19;5.40;;;2.70;;
75456;SDS011;64036;48.266;14.192;2023-03-14T03:13:47;5.30;;;2.70;;
75456;SDS011;64036;48.266;14.192;2023-03-14T03:16:13;5.30;;;2.70;;
75456;SDS011;64036;48.266;14.192;2023-03-14T03:18:43;3.80;;;2.70;;
75456;SDS011;64036;48.266;14.192;2023-03-14T03:21:26;6.60;;;2.80;;
75456;SDS011;64036;48.266;14.192;2023-03-14T03:23:52;5.70;;;3.20;;
75456;SDS011;64036;48.266;14.192;2023-03-14T03:26:18;4.60;;;2.70;;
75456;SDS011;64036;48.266;14.192;2023-03-14T03:28:44;5.50;;;3.00;;
75456;SDS011;64036;48.266;14.192;2023-03-14T03:31:15;4.10;;;2.80;;
75456;SDS011;64036;48.266;14.192;2023-03-14T03:33:41;4.60;;;3.10;;
75456;SDS011;64036;48.266;14.192;2023-03-14T03:36:08;6.10;;;3.30;;
75456;SDS011;64036;48.266;14.192;2023-03-14T03:38:34;9.00;;;3.20;;
75456;SDS011;64036;48.266;14.192;2023-03-14T03:41:07;5.70;;;2.80;;
75456;SDS011;64036;48.266;14.192;2023-03-14T03:43:33;4.80;;;3.00;;
75456;SDS011;64036;48.266;14.192;2023-03-14T03:46:03;5.60;;;3.00;;
75456;SDS011;64036;48.266;14.192;2023-03-14T03:48:30;5.80;;;3.00;;
75456;SDS011;64036;48.266;14.192;2023-03-14T03:50:56;5.70;;;3.10;;
75456;SDS011;64036;48.266;14.192;2023-03-14T03:53:22;5.60;;;3.30;;
75456;SDS011;64036;48.266;14.192;2023-03-14T03:55:48;6.20;;;2.90;;
75456;SDS011;64036;48.266;14.192;2023-03-14T03:58:13;5.40;;;3.00;;
75456;SDS011;64036;48.266;14.192;2023-03-14T04:00:39;5.90;;;2.80;;
75456;SDS011;64036;48.266;14.192;2023-03-14T04:03:05;5.50;;;3.20;;
75456;SDS011;64036;48.266;14.192;2023-03-14T04:05:31;4.30;;;2.70;;
75456;SDS011;64036;48.266;14.192;2023-03-14T04:08:00;6.10;;;2.80;;
75456;SDS011;64036;48.266;14.192;2023-03-14T04:10:26;5.00;;;3.00;;
75456;SDS011;64036;48.266;14.192;2023-03-14T04:12:52;5.00;;;2.90;;
75456;SDS011;64036;48.266;14.192;2023-03-14T04:15:18;5.60;;;3.10;;
75456;SDS011;64036;48.266;14.192;2023-03-14T04:17:44;5.50;;;3.20;;
75456;SDS011;64036;48.266;14.192;2023-03-14T04:20:10;5.30;;;2.70;;
75456;SDS011;64036;48.266;14.192;2023-03-14T04:22:40;4.40;;;2.80;;
75456;SDS011;64036;48.266;14.192;2023-03-14T04:25:06;4.90;;;3.00;;
75456;SDS011;64036;48.266;14.192;2023-03-14T04:27:33;6.00;;;3.10;;
75456;SDS011;64036;48.266;14.192;2023-03-14T04:29:59;6.20;;;3.20;;
75456;SDS011;64036;48.266;14.192;2023-03-14T04:32:24;7.60;;;3.40;;
75456;SDS011;64036;48.266;14.192;2023-03-14T04:34:50;4.50;;;3.00;;
75456;SDS011;64036;48.266;14.192;2023-03-14T04:37:16;6.60;;;3.20;;
75456;SDS011;64036;48.266;14.192;2023-03-14T04:39:42;5.00;;;2.90;;
75456;SDS011;64036;48.266;14.192;2023-03-14T04:42:08;6.10;;;3.50;;
75456;SDS011;64036;48.266;14.192;2023-03-14T04:44:34;4.60;;;2.60;;
75456;SDS011;64036;48.266;14.192;2023-03-14T04:47:00;5.90;;;3.30;;
75456;SDS011;64036;48.266;14.192;2023-03-14T04:49:28;4.90;;;3.10;;
75456;SDS011;64036;48.266;14.192;2023-03-14T04:51:54;6.00;;;3.40;;
75456;SDS011;64036;48.266;14.192;2023-03-14T04:54:19;6.30;;;3.30;;
75456;SDS011;64036;48.266;14.192;2023-03-14T04:56:45;6.50;;;3.20;;
75456;SDS011;64036;48.266;14.192;2023-03-14T04:59:13;7.00;;;2.90;;
75456;SDS011;64036;48.266;14.192;2023-03-14T05:01:39;5.70;;;3.20;;
75456;SDS011;64036;48.266;14.192;2023-03-14T05:04:06;5.40;;;3.20;;
75456;SDS011;64036;48.266;14.192;2023-03-14T05:06:32;6.40;;;3.40;;
75456;SDS011;64036;48.266;14.192;2023-03-14T05:08:58;6.60;;;4.20;;
75456;SDS011;64036;48.266;14.192;2023-03-14T05:11:23;6.70;;;3.90;;
75456;SDS011;64036;48.266;14.192;2023-03-14T05:13:49;5.80;;;3.30;;
75456;SDS011;64036;48.266;14.192;2023-03-14T05:16:15;6.60;;;3.20;;
75456;SDS011;64036;48.266;14.192;2023-03-14T05:18:41;4.90;;;3.10;;
75456;SDS011;64036;48.266;14.192;2023-03-14T05:21:06;5.50;;;3.20;;
75456;SDS011;64036;48.266;14.192;2023-03-14T05:23:32;6.00;;;3.10;;
75456;SDS011;64036;48.266;14.192;2023-03-14T05:25:58;6.00;;;3.10;;
75456;SDS011;64036;48.266;14.192;2023-03-14T05:28:24;5.90;;;3.00;;
75456;SDS011;64036;48.266;14.192;2023-03-14T05:30:50;3.90;;;2.40;;
75456;SDS011;64036;48.266;14.192;2023-03-14T05:33:15;3.60;;;2.30;;
75456;SDS011;64036;48.266;14.192;2023-03-14T05:35:42;3.40;;;2.10;;
75456;SDS011;64036;48.266;14.192;2023-03-14T05:38:08;3.50;;;2.30;;
75456;SDS011;64036;48.266;14.192;2023-03-14T05:40:34;2.40;;;1.80;;
75456;SDS011;64036;48.266;14.192;2023-03-14T05:43:00;2.30;;;1.80;;
75456;SDS011;64036;48.266;14.192;2023-03-14T05:45:26;3.70;;;1.80;;
75456;SDS011;64036;48.266;14.192;2023-03-14T05:47:54;4.00;;;1.90;;
75456;SDS011;64036;48.266;14.192;2023-03-14T05:50:20;5.90;;;3.20;;
75456;SDS011;64036;48.266;14.192;2023-03-14T05:52:46;7.90;;;4.40;;
75456;SDS011;64036;48.266;14.192;2023-03-14T05:55:11;5.70;;;3.00;;
75456;SDS011;64036;48.266;14.192;2023-03-14T05:57:37;4.10;;;2.10;;
75456;SDS011;64036;48.266;14.192;2023-03-14T06:00:03;1.70;;;1.40;;
75456;SDS011;64036;48.266;14.192;2023-03-14T06:02:30;1.70;;;1.40;;
75456;SDS011;64036;48.266;14.192;2023-03-14T06:04:55;1.90;;;1.40;;
75456;SDS011;64036;48.266;14.192;2023-03-14T06:07:21;1.60;;;1.20;;
75456;SDS011;64036;48.266;14.192;2023-03-14T06:09:47;2.50;;;1.30;;
75456;SDS011;64036;48.266;14.192;2023-03-14T06:12:13;2.10;;;1.30;;
75456;SDS011;64036;48.266;14.192;2023-03-14T06:14:38;1.20;;;1.00;;
75456;SDS011;64036;48.266;14.192;2023-03-14T06:17:04;1.90;;;1.20;;
75456;SDS011;64036;48.266;14.192;2023-03-14T06:19:30;1.10;;;1.00;;
75456;SDS011;64036;48.266;14.192;2023-03-14T06:21:56;1.40;;;1.00;;
75456;SDS011;64036;48.266;14.192;2023-03-14T06:24:21;1.30;;;1.10;;
75456;SDS011;64036;48.266;14.192;2023-03-14T06:26:47;1.70;;;1.10;;
75456;SDS011;64036;48.266;14.192;2023-03-14T06:29:13;1.40;;;1.20;;
75456;SDS011;64036;48.266;14.192;2023-03-14T06:31:39;2.00;;;1.20;;
75456;SDS011;64036;48.266;14.192;2023-03-14T06:34:05;2.40;;;1.30;;
75456;SDS011;64036;48.266;14.192;2023-03-14T06:36:31;1.90;;;1.30;;
75456;SDS011;64036;48.266;14.192;2023-03-14T06:38:56;1.70;;;1.20;;
75456;SDS011;64036;48.266;14.192;2023-03-14T06:41:22;1.50;;;1.30;;
75456;SDS011;64036;48.266;14.192;2023-03-14T06:43:51;2.40;;;1.40;;
75456;SDS011;64036;48.266;14.192;2023-03-14T06:46:17;3.30;;;1.40;;
75456;SDS011;64036;48.266;14.192;2023-03-14T06:48:42;2.10;;;1.50;;
75456;SDS011;64036;48.266;14.192;2023-03-14T06:51:08;2.60;;;1.40;;
75456;SDS011;64036;48.266;14.192;2023-03-14T06:53:34;2.30;;;1.40;;
75456;SDS011;64036;48.266;14.192;2023-03-14T06:56:00;2.20;;;1.30;;
75456;SDS011;64036;48.266;14.192;2023-03-14T06:58:25;1.80;;;1.20;;
75456;SDS011;64036;48.266;14.192;2023-03-14T07:00:53;1.70;;;1.40;;
75456;SDS011;64036;48.266;14.192;2023-03-14T07:03:20;2.80;;;1.50;;
75456;SDS011;64036;48.266;14.192;2023-03-14T07:05:46;2.60;;;1.50;;
75456;SDS011;64036;48.266;14.192;2023-03-14T07:08:11;1.90;;;1.30;;
75456;SDS011;64036;48.266;14.192;2023-03-14T07:10:37;1.70;;;1.40;;
75456;SDS011;64036;48.266;14.192;2023-03-14T07:13:03;2.20;;;1.40;;
75456;SDS011;64036;48.266;14.192;2023-03-14T07:15:30;2.60;;;1.50;;
75456;SDS011;64036;48.266;14.192;2023-03-14T07:17:56;1.80;;;1.20;;
75456;SDS011;64036;48.266;14.192;2023-03-14T07:20:21;2.10;;;1.40;;
75456;SDS011;64036;48.266;14.192;2023-03-14T07:22:48;3.10;;;1.40;;
75456;SDS011;64036;48.266;14.192;2023-03-14T07:25:15;2.80;;;1.50;;
75456;SDS011;64036;48.266;14.192;2023-03-14T07:27:43;2.40;;;1.20;;
75456;SDS011;64036;48.266;14.192;2023-03-14T07:30:10;2.70;;;1.40;;
75456;SDS011;64036;48.266;14.192;2023-03-14T07:32:36;2.40;;;1.40;;
75456;SDS011;64036;48.266;14.192;2023-03-14T07:35:02;3.70;;;1.50;;
75456;SDS011;64036;48.266;14.192;2023-03-14T07:37:29;4.60;;;1.50;;
75456;SDS011;64036;48.266;14.192;2023-03-14T07:39:54;1.70;;;1.20;;
75456;SDS011;64036;48.266;14.192;2023-03-14T07:42:20;1.80;;;1.10;;
75456;SDS011;64036;48.266;14.192;2023-03-14T07:44:46;2.70;;;1.10;;
75456;SDS011;64036;48.266;14.192;2023-03-14T07:47:12;3.20;;;1.20;;
75456;SDS011;64036;48.266;14.192;2023-03-14T07:49:37;4.00;;;1.90;;
75456;SDS011;64036;48.266;14.192;2023-03-14T07:52:03;3.90;;;2.00;;
75456;SDS011;64036;48.266;14.192;2023-03-14T07:54:29;6.00;;;2.40;;
75456;SDS011;64036;48.266;14.192;2023-03-14T07:56:55;4.60;;;2.40;;
75456;SDS011;64036;48.266;14.192;2023-03-14T07:59:21;4.80;;;2.20;;
75456;SDS011;64036;48.266;14.192;2023-03-14T08:01:47;4.00;;;1.90;;
75456;SDS011;64036;48.266;14.192;2023-03-14T08:04:12;2.80;;;1.70;;
75456;SDS011;64036;48.266;14.192;2023-03-14T08:06:38;2.90;;;1.60;;
75456;SDS011;64036;48.266;14.192;2023-03-14T08:09:04;3.10;;;1.50;;
75456;SDS011;64036;48.266;14.192;2023-03-14T08:11:30;3.70;;;1.50;;
75456;SDS011;64036;48.266;14.192;2023-03-14T08:13:55;1.30;;;1.10;;
75456;SDS011;64036;48.266;14.192;2023-03-14T08:16:21;2.30;;;1.10;;
75456;SDS011;64036;48.266;14.192;2023-03-14T08:18:48;1.90;;;1.20;;
75456;SDS011;64036;48.266;14.192;2023-03-14T08:21:13;2.50;;;1.20;;
75456;SDS011;64036;48.266;14.192;2023-03-14T08:23:39;1.60;;;1.00;;
75456;SDS011;64036;48.266;14.192;2023-03-14T08:26:06;1.00;;;0.90;;
75456;SDS011;64036;48.266;14.192;2023-03-14T08:28:32;2.40;;;1.20;;
75456;SDS011;64036;48.266;14.192;2023-03-14T08:30:59;1.80;;;1.30;;
75456;SDS011;64036;48.266;14.192;2023-03-14T08:33:27;3.20;;;1.20;;
75456;SDS011;64036;48.266;14.192;2023-03-14T08:35:58;1.50;;;1.00;;
75456;SDS011;64036;48.266;14.192;2023-03-14T08:38:25;2.20;;;1.00;;
75456;SDS011;64036;48.266;14.192;2023-03-14T08:40:56;1.80;;;0.90;;
75456;SDS011;64036;48.266;14.192;2023-03-14T08:43:22;3.00;;;1.20;;
75456;SDS011;64036;48.266;14.192;2023-03-14T08:45:48;2.60;;;1.00;;
75456;SDS011;64036;48.266;14.192;2023-03-14T08:48:14;1.10;;;0.90;;
75456;SDS011;64036;48.266;14.192;2023-03-14T08:50:39;0.80;;;0.80;;
75456;SDS011;64036;48.266;14.192;2023-03-14T08:53:05;1.50;;;0.90;;
75456;SDS011;64036;48.266;14.192;2023-03-14T08:55:31;0.80;;;0.80;;
75456;SDS011;64036;48.266;14.192;2023-03-14T08:57:57;1.30;;;0.80;;
75456;SDS011;64036;48.266;14.192;2023-03-14T09:00:22;2.00;;;0.90;;
75456;SDS011;64036;48.266;14.192;2023-03-14T09:02:49;1.20;;;1.00;;
75456;SDS011;64036;48.266;14.192;2023-03-14T09:05:14;2.00;;;1.00;;
75456;SDS011;64036;48.266;14.192;2023-03-14T09:07:41;1.80;;;1.00;;
75456;SDS011;64036;48.266;14.192;2023-03-14T09:10:08;3.60;;;1.40;;
75456;SDS011;64036;48.266;14.192;2023-03-14T09:12:35;3.20;;;1.30;;
75456;SDS011;64036;48.266;14.192;2023-03-14T09:15:00;1.00;;;0.90;;
75456;SDS011;64036;48.266;14.192;2023-03-14T09:17:27;0.90;;;0.90;;
75456;SDS011;64036;48.266;14.192;2023-03-14T09:19:53;2.00;;;0.90;;
75456;SDS011;64036;48.266;14.192;2023-03-14T09:22:18;2.50;;;0.90;;
75456;SDS011;64036;48.266;14.192;2023-03-14T09:24:45;2.50;;;1.00;;
75456;SDS011;64036;48.266;14.192;2023-03-14T09:27:11;1.90;;;1.00;;
75456;SDS011;64036;48.266;14.192;2023-03-14T09:29:37;1.90;;;0.90;;
75456;SDS011;64036;48.266;14.192;2023-03-14T09:32:03;3.00;;;1.10;;
75456;SDS011;64036;48.266;14.192;2023-03-14T09:34:29;1.50;;;1.00;;
75456;SDS011;64036;48.266;14.192;2023-03-14T09:36:55;1.80;;;1.10;;
75456;SDS011;64036;48.266;14.192;2023-03-14T09:39:21;2.60;;;1.10;;
75456;SDS011;64036;48.266;14.192;2023-03-14T09:41:49;1.20;;;1.10;;
75456;SDS011;64036;48.266;14.192;2023-03-14T09:44:30;4.40;;;0.90;;
75456;SDS011;64036;48.266;14.192;2023-03-14T09:52:01;1.10;;;0.90;;
75456;SDS011;64036;48.266;14.192;2023-03-14T09:54:32;0.80;;;0.70;;
75456;SDS011;64036;48.266;14.192;2023-03-14T09:57:15;1.20;;;0.80;;
75456;SDS011;64036;48.266;14.192;2023-03-14T09:59:45;1.30;;;0.80;;
75456;SDS011;64036;48.266;14.192;2023-03-14T10:02:23;2.00;;;1.10;;
75456;SDS011;64036;48.266;14.192;2023-03-14T10:04:52;0.80;;;0.80;;
75456;SDS011;64036;48.266;14.192;2023-03-14T10:07:30;0.80;;;0.80;;
75456;SDS011;64036;48.266;14.192;2023-03-14T10:09:58;1.70;;;1.00;;
75456;SDS011;64036;48.266;14.192;2023-03-14T10:12:32;1.60;;;1.00;;
75456;SDS011;64036;48.266;14.192;2023-03-14T10:15:07;2.20;;;0.90;;
75456;SDS011;64036;48.266;14.192;2023-03-14T10:20:05;1.70;;;0.90;;
75456;SDS011;64036;48.266;14.192;2023-03-14T10:22:32;1.10;;;0.80;;
75456;SDS011;64036;48.266;14.192;2023-03-14T10:25:04;1.10;;;1.00;;
75456;SDS011;64036;48.266;14.192;2023-03-14T10:27:34;1.20;;;1.00;;
75456;SDS011;64036;48.266;14.192;2023-03-14T10:30:07;1.40;;;1.00;;
75456;SDS011;64036;48.266;14.192;2023-03-14T10:32:36;1.30;;;0.80;;
75456;SDS011;64036;48.266;14.192;2023-03-14T10:38:01;1.20;;;0.80;;
75456;SDS011;64036;48.266;14.192;2023-03-14T10:40:33;1.30;;;0.90;;
75456;SDS011;64036;48.266;14.192;2023-03-14T10:43:04;0.80;;;0.80;;
75456;SDS011;64036;48.266;14.192;2023-03-14T10:45:39;1.50;;;0.90;;
75456;SDS011;64036;48.266;14.192;2023-03-14T10:51:07;0.90;;;0.70;;
75456;SDS011;64036;48.266;14.192;2023-03-14T10:53:50;1.00;;;0.80;;
75456;SDS011;64036;48.266;14.192;2023-03-14T10:56:24;1.40;;;1.00;;
75456;SDS011;64036;48.266;14.192;2023-03-14T10:58:53;1.10;;;0.80;;
75456;SDS011;64036;48.266;14.192;2023-03-14T11:07:48;0.80;;;0.80;;
75456;SDS011;64036;48.266;14.192;2023-03-14T11:21:56;0.70;;;0.60;;
75456;SDS011;64036;48.266;14.192;2023-03-14T11:27:22;0.70;;;0.70;;
75456;SDS011;64036;48.266;14.192;2023-03-14T11:30:01;0.60;;;0.60;;
75456;SDS011;64036;48.266;14.192;2023-03-14T11:33:03;0.90;;;0.80;;
75456;SDS011;64036;48.266;14.192;2023-03-14T11:35:49;0.70;;;0.70;;
75456;SDS011;64036;48.266;14.192;2023-03-14T11:38:49;1.20;;;0.70;;
75456;SDS011;64036;48.266;14.192;2023-03-14T11:41:38;1.80;;;0.80;;
75456;SDS011;64036;48.266;14.192;2023-03-14T11:44:26;0.70;;;0.70;;
75456;SDS011;64036;48.266;14.192;2023-03-14T11:46:59;1.20;;;0.70;;
75456;SDS011;64036;48.266;14.192;2023-03-14T11:49:39;1.10;;;0.60;;
75456;SDS011;64036;48.266;14.192;2023-03-14T11:52:16;0.60;;;0.60;;
75456;SDS011;64036;48.266;14.192;2023-03-14T11:54:50;1.10;;;0.70;;
75456;SDS011;64036;48.266;14.192;2023-03-14T11:57:19;0.70;;;0.70;;
75456;SDS011;64036;48.266;14.192;2023-03-14T12:05:45;1.30;;;1.00;;
75456;SDS011;64036;48.266;14.192;2023-03-14T12:08:45;0.70;;;0.70;;
75456;SDS011;64036;48.266;14.192;2023-03-14T12:11:46;1.00;;;0.70;;
75456;SDS011;64036;48.266;14.192;2023-03-14T12:14:22;0.50;;;0.50;;
75456;SDS011;64036;48.266;14.192;2023-03-14T12:16:54;0.80;;;0.60;;
75456;SDS011;64036;48.266;14.192;2023-03-14T12:21:54;0.90;;;0.60;;
75456;SDS011;64036;48.266;14.192;2023-03-14T12:24:26;0.70;;;0.70;;
75456;SDS011;64036;48.266;14.192;2023-03-14T12:27:02;0.70;;;0.70;;
75456;SDS011;64036;48.266;14.192;2023-03-14T12:34:42;1.10;;;0.70;;
75456;SDS011;64036;48.266;14.192;2023-03-14T12:42:57;1.20;;;0.70;;
75456;SDS011;64036;48.266;14.192;2023-03-14T12:48:13;1.30;;;0.80;;
75456;SDS011;64036;48.266;14.192;2023-03-14T12:51:02;0.50;;;0.50;;
75456;SDS011;64036;48.266;14.192;2023-03-14T12:53:55;0.60;;;0.50;;
75456;SDS011;64036;48.266;14.192;2023-03-14T12:59:38;1.20;;;0.60;;
75456;SDS011;64036;48.266;14.192;2023-03-14T13:02:24;2.40;;;0.70;;
75456;SDS011;64036;48.266;14.192;2023-03-14T13:05:14;1.00;;;0.70;;
75456;SDS011;64036;48.266;14.192;2023-03-14T13:12:47;1.50;;;0.50;;
75456;SDS011;64036;48.266;14.192;2023-03-14T13:18:00;0.90;;;0.60;;
75456;SDS011;64036;48.266;14.192;2023-03-14T13:20:40;0.90;;;0.70;;
75456;SDS011;64036;48.266;14.192;2023-03-14T13:23:27;0.70;;;0.70;;
75456;SDS011;64036;48.266;14.192;2023-03-14T13:25:56;0.60;;;0.60;;
75456;SDS011;64036;48.266;14.192;2023-03-14T13:28:23;0.90;;;0.60;;
75456;SDS011;64036;48.266;14.192;2023-03-14T13:30:50;0.50;;;0.50;;
75456;SDS011;64036;48.266;14.192;2023-03-14T13:33:22;1.00;;;0.60;;
75456;SDS011;64036;48.266;14.192;2023-03-14T13:36:03;0.50;;;0.50;;
75456;SDS011;64036;48.266;14.192;2023-03-14T13:38:35;0.40;;;0.40;;
75456;SDS011;64036;48.266;14.192;2023-03-14T13:41:06;1.10;;;0.70;;
75456;SDS011;64036;48.266;14.192;2023-03-14T13:46:13;0.60;;;0.60;;
75456;SDS011;64036;48.266;14.192;2023-03-14T13:48:50;0.70;;;0.70;;
75456;SDS011;64036;48.266;14.192;2023-03-14T13:51:20;0.90;;;0.70;;
75456;SDS011;64036;48.266;14.192;2023-03-14T13:53:49;0.60;;;0.60;;
75456;SDS011;64036;48.266;14.192;2023-03-14T13:56:17;0.60;;;0.60;;
75456;SDS011;64036;48.266;14.192;2023-03-14T13:58:45;0.80;;;0.60;;
75456;SDS011;64036;48.266;14.192;2023-03-14T14:01:15;0.70;;;0.70;;
75456;SDS011;64036;48.266;14.192;2023-03-14T14:03:45;0.70;;;0.70;;
75456;SDS011;64036;48.266;14.192;2023-03-14T14:06:30;0.60;;;0.60;;
75456;SDS011;64036;48.266;14.192;2023-03-14T14:09:12;0.50;;;0.50;;
75456;SDS011;64036;48.266;14.192;2023-03-14T14:12:05;0.60;;;0.60;;
75456;SDS011;64036;48.266;14.192;2023-03-14T14:14:38;0.60;;;0.60;;
75456;SDS011;64036;48.266;14.192;2023-03-14T14:17:18;0.60;;;0.60;;
75456;SDS011;64036;48.266;14.192;2023-03-14T14:19:50;0.70;;;0.70;;
75456;SDS011;64036;48.266;14.192;2023-03-14T14:22:17;0.50;;;0.50;;
75456;SDS011;64036;48.266;14.192;2023-03-14T14:24:49;0.60;;;0.60;;
75456;SDS011;64036;48.266;14.192;2023-03-14T14:27:20;0.60;;;0.60;;
75456;SDS011;64036;48.266;14.192;2023-03-14T14:29:59;0.60;;;0.60;;
75456;SDS011;64036;48.266;14.192;2023-03-14T14:32:38;0.80;;;0.80;;
75456;SDS011;64036;48.266;14.192;2023-03-14T14:35:05;0.60;;;0.60;;
75456;SDS011;64036;48.266;14.192;2023-03-14T14:37:34;0.90;;;0.60;;
75456;SDS011;64036;48.266;14.192;2023-03-14T14:40:10;0.60;;;0.60;;
75456;SDS011;64036;48.266;14.192;2023-03-14T14:42:40;0.60;;;0.60;;
75456;SDS011;64036;48.266;14.192;2023-03-14T14:45:11;0.80;;;0.60;;
75456;SDS011;64036;48.266;14.192;2023-03-14T14:50:48;0.70;;;0.70;;
75456;SDS011;64036;48.266;14.192;2023-03-14T14:53:29;0.60;;;0.60;;
75456;SDS011;64036;48.266;14.192;2023-03-14T14:55:58;0.60;;;0.60;;
75456;SDS011;64036;48.266;14.192;2023-03-14T14:58:33;0.60;;;0.60;;
75456;SDS011;64036;48.266;14.192;2023-03-14T15:01:07;0.60;;;0.60;;
75456;SDS011;64036;48.266;14.192;2023-03-14T15:03:35;0.60;;;0.60;;
75456;SDS011;64036;48.266;14.192;2023-03-14T15:06:02;0.70;;;0.70;;
75456;SDS011;64036;48.266;14.192;2023-03-14T15:08:28;0.70;;;0.70;;
75456;SDS011;64036;48.266;14.192;2023-03-14T15:10:56;0.60;;;0.60;;
75456;SDS011;64036;48.266;14.192;2023-03-14T15:13:22;0.50;;;0.50;;
75456;SDS011;64036;48.266;14.192;2023-03-14T15:15:50;0.50;;;0.50;;
75456;SDS011;64036;48.266;14.192;2023-03-14T15:18:22;0.60;;;0.60;;
75456;SDS011;64036;48.266;14.192;2023-03-14T15:20:50;0.50;;;0.50;;
75456;SDS011;64036;48.266;14.192;2023-03-14T15:23:18;0.80;;;0.80;;
75456;SDS011;64036;48.266;14.192;2023-03-14T15:25:45;0.60;;;0.60;;
75456;SDS011;64036;48.266;14.192;2023-03-14T15:28:27;0.80;;;0.80;;
75456;SDS011;64036;48.266;14.192;2023-03-14T15:30:58;0.70;;;0.70;;
75456;SDS011;64036;48.266;14.192;2023-03-14T15:33:26;0.90;;;0.70;;
75456;SDS011;64036;48.266;14.192;2023-03-14T15:35:53;1.10;;;0.50;;
75456;SDS011;64036;48.266;14.192;2023-03-14T15:38:20;0.80;;;0.60;;
75456;SDS011;64036;48.266;14.192;2023-03-14T15:40:49;0.90;;;0.80;;
75456;SDS011;64036;48.266;14.192;2023-03-14T15:43:16;1.70;;;0.70;;
75456;SDS011;64036;48.266;14.192;2023-03-14T15:45:43;0.80;;;0.80;;
75456;SDS011;64036;48.266;14.192;2023-03-14T15:48:15;1.20;;;0.80;;
75456;SDS011;64036;48.266;14.192;2023-03-14T15:50:44;1.10;;;0.80;;
75456;SDS011;64036;48.266;14.192;2023-03-14T15:53:11;0.80;;;0.70;;
75456;SDS011;64036;48.266;14.192;2023-03-14T15:55:37;1.10;;;0.90;;
75456;SDS011;64036;48.266;14.192;2023-03-14T15:58:03;1.10;;;1.00;;
75456;SDS011;64036;48.266;14.192;2023-03-14T16:00:29;1.00;;;0.90;;
75456;SDS011;64036;48.266;14.192;2023-03-14T16:02:55;0.80;;;0.80;;
75456;SDS011;64036;48.266;14.192;2023-03-14T16:05:21;2.00;;;1.10;;